Relevés horaires Antwerpen / Deurne (Belgique)


Relevés horaires à Antwerpen / Deurne - Mercredi 01 Mars 2023
Heure UTC1 Température [°C] Vent [km/h] Hum. [%] Pres.4 [hPa] Visi. [Km] Nébu. [octa] Préc.5 [mm] Cond.
2m. Res. Ros. Dir.2 Vit. Moy. Raf.3
23:00 1.5 -0.8 -5.4 NE 7.4 7.4 9.3 60 1024.4(-0.2/3h) 45 -- -- --
22:00 1.7 0.1 -5.4 N 5.6 5.6 9.3 59 1024.3(-0.7/3h) 30 0/8 -- --
21:00 2.0 2.0 -5.5 NE 3.7 5.6 9.3 57 1024.7(-0.1/3h) 30 0/8 -- --
20:00 2.6 2.6 -5.2 N 3.7 5.6 9.3 56 1024.6(0.1/3h) 30 0/8 -- --
19:00 3.1 3.1 -5.0 NE 3.7 5.6 7.4 55 1024.9(0.3/3h) 30 0/8 -- --
18:00 4.2 2.9 -4.9 NE 5.6 11.1 16.7 51 1024.7(-0.4/3h) 30 0/8 0/12h
--
17:00 5.5 3.4 -5.3 NE 9.3 11.1 14.8 46 1024.5(-1.4/3h) 30 0/8 -- --
16:00 6.2 4.7 -5.4 NE 7.4 11.1 16.7 43 1024.6(-2.1/3h) 30 0/8 -- --
15:00 6.3 4.4 -5.2 NE 9.3 11.1 16.7 43 1025(-2.4/3h) 30 1/8 -- --
14:00 6.1 4.1 -5.3 NNE 9.3 9.3 14.8 44 1025.9(-2.1/3h) 30 1/8 -- --
13:00 5.4 3.3 -5.5 NE 9.3 9.3 14.8 45 1026.7(-1.7/3h) 30 1/8 -- --
12:00 5.2 3.5 -5.1 NE 7.4 9.3 14.8 47 1027.4(-1.9/3h) 30 1/8 0/6h
--
11:00 4.0 2.1 -5.7 NE 7.4 9.3 13.0 49 1028(-1.3/3h) 30 1/8 -- --
10:00 3.3 0.8 -4.9 ENE 9.3 9.3 14.8 55 1028.5(-0.7/3h) 30 1/8 -- --
09:00 1.3 -0.4 -5.3 ENE 5.6 7.4 9.3 61 1029.4(0.0/3h) 30 0/8 -- --
08:00 -0.7 -0.7 -5.5 NNE 3.7 5.6 5.6 70 1029.4(-0.5/3h) 30 0/8 -- --
07:00 -2.0 -2.0 -5.7 N 3.7 3.7 7.4 76 1029.2(-0.8/3h) 30 0/8 -- --
06:00 -1.8 -1.8 -5.7 N 3.7 5.6 9.3 75 1029.3(-0.8/3h) 30 1/8 0/12h
--
05:00 -1.5 -1.5 -5.8 N 3.7 5.6 9.3 72 1029.9(-0.8/3h) 45 -- -- --
04:00 -1.2 -3.2 -6.0 N 5.6 5.6 9.3 70 1030(-1.3/3h) 45 -- -- --
03:00 -1.0 -3 -6.1 N 5.6 5.6 7.4 68 1030.1(-1.2/3h) 45 -- -- --
02:00 -0.8 -0.8 -6.2 N 3.7 5.6 7.4 67 1030.7(-0.5/3h) 40 -- -- --
01:00 -0.4 -0.4 -6.2 N 3.7 5.6 7.4 65 1031.3(0.2/3h) 45 -- -- --
00:00 0.3 -1.5 -6.8 N 5.6 5.6 7.4 59 1031.3(0.2/3h) 45 -- 0/6h
0/24h
--

1 Coordinated Universal Time. Actuellement il est 13:00 locale et 11:00 UTC.

2 Le vent souffle depuis la direction indiquée vers la direction oposée.

3 Les rafales max. sont disponible 40 min après l'heure du relevé.

4 Pour les stations d'altitude (plus de 600m) le géopotentiel du niveau le plus proche de la pression obligatoire est indiqué.

5 Les stations disposant d'un diffuseur peuvent indiquer "trace". Cela signifie que des précipitations ont touchés le sol mais que la quantité est inférieure à 0.1 mm.

Récapitulatif de la journée
Température [°C] Vent [km/h] Ensoleillement4 [h] Precipitations totale5 [mm] Pression [Hpa]
Min1 Max.2 Moy.3 Max. Min Max.
-2.1 6.7 7.4 16.7 0 h 0 min 0 1024.3 1031.3

1 Température minimale relevée entre 18:00 UTC la veille et 18:00 UTC le jour donné.

2 Température maximale relevée entre 06:00 UTC le jour donné et 06:00 UTC le lendemain.

3 Vent moyen de la journée basé sur les relevés horaires.

4 Ensoleillement en heures relevé entre 06:00 UTC la veille et 06:00 UTC le jour donné.

5 Précipitations totales tombées entre 06:00 UTC la jour donné et 06:00 UTC le lendemain.

Graphiques horaires